National Weather Service United States Department of Commerce

Airport Observations and Forecasts (from NWS CLE)

Cleveland Hopkins International Airport

 

FAA details


481
FTUS41 KCLE 120657 AAB
TAFCLE
TAF AMD
KCLE 120657Z 1207/1312 36005KT 2SM -SN OVC025
FM120800 35005KT 1 1/2SM -SN SCT008 OVC015
FM121100 30020G30KT 2SM -SHSN OVC015
FM121400 30022G32KT 6SM -SHSN OVC020=

24 hours of observations

7-day forecast

Hourly - Tabular forecast  Hourly - Graph forecast

Terminal Information Board

Toledo Express Airport

 

FAA details


125
FTUS41 KCLE 120533
TAFTOL
TAF
KTOL 120533Z 1206/1306 34008KT 1 1/2SM -SN OVC015
TEMPO 1206/1209 3SM -SN SCT012 OVC025
FM120900 30014G22KT 5SM -SHSN OVC025
FM121400 30018G28KT P6SM OVC035=

24 hours of observations

7-day forecast

Hourly - Tabular forecast  Hourly - Graph forecast

Terminal Information Board

Findlay Airport

 

FAA details


103
FTUS41 KCLE 120802 AAA
TAFFDY
TAF AMD
KFDY 120802Z 1208/1306 29012G18KT 3SM -SN BR OVC006
TEMPO 1208/1212 2SM -SN SCT006 OVC012
FM121200 31015G25KT P6SM OVC015
FM121800 31018G28KT P6SM OVC035=

24 hours of observations

7-day forecast

Hourly - Tabular forecast   Hourly - Graph forecast

Terminal Information Board

Mansfield Lahm Airport

 

FAA details


294
FTUS41 KCLE 120821 AAB
TAFMFD
TAF AMD
KMFD 120821Z 1208/1306 28012G18KT 1 1/2SM -SN OVC012
TEMPO 1208/1212 5SM -SHSN BKN007
FM121200 31015G25KT 6SM -SHSN OVC025
FM121600 30018G28KT P6SM OVC035=

24 hours of observations

7-day forecast

Hourly - Tabular forecast   Hourly - Graph forecast

Terminal Information Board

Akron-Canton Airport

 

FAA details


126
FTUS41 KCLE 120533
TAFCAK
TAF
KCAK 120533Z 1206/1306 VRB03KT 6SM -SN OVC035
TEMPO 1206/1209 3SM -SN OVC025
FM120900 26010KT 1 1/2SM -SN OVC015
FM121400 31015G25KT 6SM -SHSN OVC025
FM121800 31018G28KT P6SM OVC035=

24 hours of observations

7-day forecast

Hourly - Tabular forecast   Hourly - Graph forecast

Terminal Information Board

Youngstown-Warren Regional Airport

 

FAA details


127
FTUS41 KCLE 120533
TAFYNG
TAF
KYNG 120533Z 1206/1306 VRB03KT 6SM -SN OVC035
TEMPO 1206/1209 3SM -SN OVC025
FM120900 26010KT 1 1/2SM -SN OVC015
FM121300 30015G25KT 6SM -SHSN OVC025=

24 hours of observations

7-day forecast

Hourly - Tabular forecast   Hourly - Graph forecast

Terminal Information Board

Erie International Airport

 

FAA details


532
FTUS41 KCLE 120611 AAA
TAFERI
TAF AMD
KERI 120611Z 1206/1306 17006KT 3SM -SHSN OVC025
TEMPO 1206/1209 1 1/2SM -SN OVC015
FM120900 28010KT 1SM -SN BKN008 OVC015
FM121400 30015G25KT 5SM -SHSN OVC015
FM121900 30020G30KT 1 1/2SM -SHSN SCT008 OVC012=

24 hours of observations

7-day forecast

Hourly - Tabular Forecast  Hourly - Graph forecast

Terminal Information Board

The National Weather Service is Cleveland is responsible for the Terminal Areodome Forecasts for seven area airports in northern Ohio and northwest Pennsylvania.  Routine issuance times are by 00Z, 06Z, 12Z, and 18Z with amendments, as needed.

Latest Surface Analysis

Additional Current Conditions

Satellite

Radar
 
 

 

Center Weather Service Unit, Oberlin/ZOB

CWA/MIS    

 

The National Weather Service Center Weather Service Unit in Oberlin is responsible for the airspace above northern Ohio and northwest Pennsylvania and ajoining areas.

 

Aviaiton Weather Center National, AWC

AIRMETS & SIGMETS

 

 

Climatology